sensor_id;sensor_type;location;lat;lon;timestamp;temperature;humidity
20732;DHT22;10527;52.124;5.196;2023-04-07T00:01:34;9.00;99.90
20732;DHT22;10527;52.124;5.196;2023-04-07T00:04:01;9.00;99.90
20732;DHT22;10527;52.124;5.196;2023-04-07T00:06:28;9.00;99.90
20732;DHT22;10527;52.124;5.196;2023-04-07T00:08:55;8.90;99.90
20732;DHT22;10527;52.124;5.196;2023-04-07T00:11:21;8.80;99.90
20732;DHT22;10527;52.124;5.196;2023-04-07T00:13:48;8.90;99.90
20732;DHT22;10527;52.124;5.196;2023-04-07T00:16:15;8.80;99.90
20732;DHT22;10527;52.124;5.196;2023-04-07T00:18:44;8.80;99.90
20732;DHT22;10527;52.124;5.196;2023-04-07T00:21:11;8.90;99.90
20732;DHT22;10527;52.124;5.196;2023-04-07T00:23:37;8.80;99.90
20732;DHT22;10527;52.124;5.196;2023-04-07T00:26:04;8.80;99.90
20732;DHT22;10527;52.124;5.196;2023-04-07T00:28:31;8.80;99.90
20732;DHT22;10527;52.124;5.196;2023-04-07T00:30:58;8.80;99.90
20732;DHT22;10527;52.124;5.196;2023-04-07T00:33:25;8.80;99.90
20732;DHT22;10527;52.124;5.196;2023-04-07T00:35:52;8.80;99.90
20732;DHT22;10527;52.124;5.196;2023-04-07T00:38:20;8.80;99.90
20732;DHT22;10527;52.124;5.196;2023-04-07T00:40:46;8.80;99.90
20732;DHT22;10527;52.124;5.196;2023-04-07T00:43:13;8.90;99.90
20732;DHT22;10527;52.124;5.196;2023-04-07T00:45:40;8.80;99.90
20732;DHT22;10527;52.124;5.196;2023-04-07T00:48:07;8.70;99.90
20732;DHT22;10527;52.124;5.196;2023-04-07T00:50:35;8.80;99.90
20732;DHT22;10527;52.124;5.196;2023-04-07T00:53:02;8.90;99.90
20732;DHT22;10527;52.124;5.196;2023-04-07T00:55:30;8.90;99.90
20732;DHT22;10527;52.124;5.196;2023-04-07T00:57:56;8.80;99.90
20732;DHT22;10527;52.124;5.196;2023-04-07T01:00:23;8.80;99.90
20732;DHT22;10527;52.124;5.196;2023-04-07T01:03:05;8.80;99.90
20732;DHT22;10527;52.124;5.196;2023-04-07T01:05:49;8.80;99.90
20732;DHT22;10527;52.124;5.196;2023-04-07T01:08:40;8.80;99.90
20732;DHT22;10527;52.124;5.196;2023-04-07T01:11:24;8.90;99.90
20732;DHT22;10527;52.124;5.196;2023-04-07T01:13:56;8.90;99.90
20732;DHT22;10527;52.124;5.196;2023-04-07T01:16:37;8.80;99.90
20732;DHT22;10527;52.124;5.196;2023-04-07T01:22:09;8.80;99.90
20732;DHT22;10527;52.124;5.196;2023-04-07T01:25:12;8.80;99.90
20732;DHT22;10527;52.124;5.196;2023-04-07T01:30:51;8.90;99.90
20732;DHT22;10527;52.124;5.196;2023-04-07T01:33:22;8.70;99.90
20732;DHT22;10527;52.124;5.196;2023-04-07T01:35:51;8.80;99.90
20732;DHT22;10527;52.124;5.196;2023-04-07T01:38:20;8.80;99.90
20732;DHT22;10527;52.124;5.196;2023-04-07T01:40:48;8.70;99.90
20732;DHT22;10527;52.124;5.196;2023-04-07T01:43:17;8.70;99.90
20732;DHT22;10527;52.124;5.196;2023-04-07T01:45:44;8.80;99.90
20732;DHT22;10527;52.124;5.196;2023-04-07T01:48:13;8.80;99.90
20732;DHT22;10527;52.124;5.196;2023-04-07T01:50:43;8.90;99.90
20732;DHT22;10527;52.124;5.196;2023-04-07T01:53:11;8.90;99.90
20732;DHT22;10527;52.124;5.196;2023-04-07T01:55:39;8.90;99.90
20732;DHT22;10527;52.124;5.196;2023-04-07T01:58:06;8.90;99.90
20732;DHT22;10527;52.124;5.196;2023-04-07T02:00:33;8.90;99.90
20732;DHT22;10527;52.124;5.196;2023-04-07T02:03:12;8.90;99.90
20732;DHT22;10527;52.124;5.196;2023-04-07T02:05:49;8.80;99.90
20732;DHT22;10527;52.124;5.196;2023-04-07T02:08:24;8.90;99.90
20732;DHT22;10527;52.124;5.196;2023-04-07T02:10:57;8.90;99.90
20732;DHT22;10527;52.124;5.196;2023-04-07T02:13:29;8.90;99.90
20732;DHT22;10527;52.124;5.196;2023-04-07T02:15:58;8.90;99.90
20732;DHT22;10527;52.124;5.196;2023-04-07T02:18:27;8.90;99.90
20732;DHT22;10527;52.124;5.196;2023-04-07T02:20:58;8.90;99.90
20732;DHT22;10527;52.124;5.196;2023-04-07T02:23:27;8.80;99.90
20732;DHT22;10527;52.124;5.196;2023-04-07T02:25:57;8.80;99.90
20732;DHT22;10527;52.124;5.196;2023-04-07T02:28:24;8.80;99.90
20732;DHT22;10527;52.124;5.196;2023-04-07T02:30:51;8.80;99.90
20732;DHT22;10527;52.124;5.196;2023-04-07T02:33:18;8.80;99.90
20732;DHT22;10527;52.124;5.196;2023-04-07T02:35:45;8.80;99.90
20732;DHT22;10527;52.124;5.196;2023-04-07T02:38:11;8.80;99.90
20732;DHT22;10527;52.124;5.196;2023-04-07T02:40:38;8.80;99.90
20732;DHT22;10527;52.124;5.196;2023-04-07T02:43:05;8.80;99.90
20732;DHT22;10527;52.124;5.196;2023-04-07T02:45:32;8.80;99.90
20732;DHT22;10527;52.124;5.196;2023-04-07T02:47:58;8.80;99.90
20732;DHT22;10527;52.124;5.196;2023-04-07T02:50:25;8.80;99.90
20732;DHT22;10527;52.124;5.196;2023-04-07T02:52:54;8.70;99.90
20732;DHT22;10527;52.124;5.196;2023-04-07T02:55:21;8.70;99.90
20732;DHT22;10527;52.124;5.196;2023-04-07T02:57:48;8.80;99.90
20732;DHT22;10527;52.124;5.196;2023-04-07T03:00:15;8.70;99.90
20732;DHT22;10527;52.124;5.196;2023-04-07T03:02:42;8.70;99.90
20732;DHT22;10527;52.124;5.196;2023-04-07T03:05:09;8.70;99.90
20732;DHT22;10527;52.124;5.196;2023-04-07T03:07:36;8.70;99.90
20732;DHT22;10527;52.124;5.196;2023-04-07T03:10:02;8.70;99.90
20732;DHT22;10527;52.124;5.196;2023-04-07T03:12:29;8.70;99.90
20732;DHT22;10527;52.124;5.196;2023-04-07T03:14:57;8.70;99.90
20732;DHT22;10527;52.124;5.196;2023-04-07T03:17:23;8.70;99.90
20732;DHT22;10527;52.124;5.196;2023-04-07T03:19:50;8.70;99.90
20732;DHT22;10527;52.124;5.196;2023-04-07T03:22:17;8.70;99.90
20732;DHT22;10527;52.124;5.196;2023-04-07T03:24:44;8.70;99.90
20732;DHT22;10527;52.124;5.196;2023-04-07T03:27:11;8.70;99.90
20732;DHT22;10527;52.124;5.196;2023-04-07T03:29:37;8.80;99.90
20732;DHT22;10527;52.124;5.196;2023-04-07T03:32:04;8.70;99.90
20732;DHT22;10527;52.124;5.196;2023-04-07T03:34:31;8.80;99.90
20732;DHT22;10527;52.124;5.196;2023-04-07T03:36:58;8.80;99.90
20732;DHT22;10527;52.124;5.196;2023-04-07T03:39:25;8.80;99.90
20732;DHT22;10527;52.124;5.196;2023-04-07T03:41:52;8.80;99.90
20732;DHT22;10527;52.124;5.196;2023-04-07T03:44:18;8.80;99.90
20732;DHT22;10527;52.124;5.196;2023-04-07T03:46:45;8.80;99.90
20732;DHT22;10527;52.124;5.196;2023-04-07T03:49:13;8.80;99.90
20732;DHT22;10527;52.124;5.196;2023-04-07T03:51:40;8.80;99.90
20732;DHT22;10527;52.124;5.196;2023-04-07T03:54:07;8.80;99.90
20732;DHT22;10527;52.124;5.196;2023-04-07T03:56:34;8.70;99.90
20732;DHT22;10527;52.124;5.196;2023-04-07T03:59:02;8.80;99.90
20732;DHT22;10527;52.124;5.196;2023-04-07T04:01:29;8.80;99.90
20732;DHT22;10527;52.124;5.196;2023-04-07T04:03:59;8.80;99.90
20732;DHT22;10527;52.124;5.196;2023-04-07T04:06:26;8.80;99.90
20732;DHT22;10527;52.124;5.196;2023-04-07T04:08:53;8.80;99.90
20732;DHT22;10527;52.124;5.196;2023-04-07T04:11:20;8.80;99.90
20732;DHT22;10527;52.124;5.196;2023-04-07T04:13:47;8.90;99.90
20732;DHT22;10527;52.124;5.196;2023-04-07T04:16:14;8.80;99.90
20732;DHT22;10527;52.124;5.196;2023-04-07T04:18:41;8.70;99.90
20732;DHT22;10527;52.124;5.196;2023-04-07T04:21:08;8.70;99.90
20732;DHT22;10527;52.124;5.196;2023-04-07T04:23:35;8.70;99.90
20732;DHT22;10527;52.124;5.196;2023-04-07T04:26:01;8.70;99.90
20732;DHT22;10527;52.124;5.196;2023-04-07T04:28:29;8.80;99.90
20732;DHT22;10527;52.124;5.196;2023-04-07T04:30:58;8.80;99.90
20732;DHT22;10527;52.124;5.196;2023-04-07T04:33:25;8.70;99.90
20732;DHT22;10527;52.124;5.196;2023-04-07T04:35:52;8.80;99.90
20732;DHT22;10527;52.124;5.196;2023-04-07T04:38:19;8.70;99.90
20732;DHT22;10527;52.124;5.196;2023-04-07T04:40:46;8.80;99.90
20732;DHT22;10527;52.124;5.196;2023-04-07T04:43:12;8.80;99.90
20732;DHT22;10527;52.124;5.196;2023-04-07T04:45:39;8.80;99.90
20732;DHT22;10527;52.124;5.196;2023-04-07T04:48:06;8.80;99.90
20732;DHT22;10527;52.124;5.196;2023-04-07T04:50:33;8.80;99.90
20732;DHT22;10527;52.124;5.196;2023-04-07T04:53:00;8.70;99.90
20732;DHT22;10527;52.124;5.196;2023-04-07T04:55:27;8.70;99.90
20732;DHT22;10527;52.124;5.196;2023-04-07T04:57:54;8.70;99.90
20732;DHT22;10527;52.124;5.196;2023-04-07T05:00:20;8.70;99.90
20732;DHT22;10527;52.124;5.196;2023-04-07T05:02:47;8.80;99.90
20732;DHT22;10527;52.124;5.196;2023-04-07T05:05:14;8.80;99.90
20732;DHT22;10527;52.124;5.196;2023-04-07T05:07:41;8.80;99.90
20732;DHT22;10527;52.124;5.196;2023-04-07T05:10:08;8.90;99.90
20732;DHT22;10527;52.124;5.196;2023-04-07T05:12:35;8.90;99.90
20732;DHT22;10527;52.124;5.196;2023-04-07T05:15:02;8.90;99.90
20732;DHT22;10527;52.124;5.196;2023-04-07T05:17:29;8.90;99.90
20732;DHT22;10527;52.124;5.196;2023-04-07T05:19:56;8.90;99.90
20732;DHT22;10527;52.124;5.196;2023-04-07T05:22:23;8.80;99.90
20732;DHT22;10527;52.124;5.196;2023-04-07T05:24:50;8.90;99.90
20732;DHT22;10527;52.124;5.196;2023-04-07T05:27:17;9.00;99.90
20732;DHT22;10527;52.124;5.196;2023-04-07T05:29:56;8.90;99.90
20732;DHT22;10527;52.124;5.196;2023-04-07T05:32:27;8.90;99.90
20732;DHT22;10527;52.124;5.196;2023-04-07T05:34:54;8.90;99.90
20732;DHT22;10527;52.124;5.196;2023-04-07T05:37:21;9.00;99.90
20732;DHT22;10527;52.124;5.196;2023-04-07T05:39:48;8.90;99.90
20732;DHT22;10527;52.124;5.196;2023-04-07T05:42:14;8.90;99.90
20732;DHT22;10527;52.124;5.196;2023-04-07T05:44:41;8.90;99.90
20732;DHT22;10527;52.124;5.196;2023-04-07T05:47:09;8.90;99.90
20732;DHT22;10527;52.124;5.196;2023-04-07T05:49:36;8.90;99.90
20732;DHT22;10527;52.124;5.196;2023-04-07T05:52:03;8.80;99.90
20732;DHT22;10527;52.124;5.196;2023-04-07T05:54:31;8.80;99.90
20732;DHT22;10527;52.124;5.196;2023-04-07T05:56:58;8.80;99.90
20732;DHT22;10527;52.124;5.196;2023-04-07T05:59:25;8.80;99.90
20732;DHT22;10527;52.124;5.196;2023-04-07T06:01:53;8.80;99.90
20732;DHT22;10527;52.124;5.196;2023-04-07T06:04:19;8.80;99.90
20732;DHT22;10527;52.124;5.196;2023-04-07T06:06:46;8.90;99.90
20732;DHT22;10527;52.124;5.196;2023-04-07T06:09:13;8.80;99.90
20732;DHT22;10527;52.124;5.196;2023-04-07T06:11:40;8.80;99.90
20732;DHT22;10527;52.124;5.196;2023-04-07T06:14:08;8.80;99.90
20732;DHT22;10527;52.124;5.196;2023-04-07T06:16:35;8.90;99.90
20732;DHT22;10527;52.124;5.196;2023-04-07T06:19:02;8.90;99.90
20732;DHT22;10527;52.124;5.196;2023-04-07T06:21:29;8.90;99.90
20732;DHT22;10527;52.124;5.196;2023-04-07T06:23:57;8.90;99.90
20732;DHT22;10527;52.124;5.196;2023-04-07T06:26:24;8.80;99.90
20732;DHT22;10527;52.124;5.196;2023-04-07T06:28:51;8.80;99.90
20732;DHT22;10527;52.124;5.196;2023-04-07T06:31:18;8.80;99.90
20732;DHT22;10527;52.124;5.196;2023-04-07T06:33:46;8.80;99.90
20732;DHT22;10527;52.124;5.196;2023-04-07T06:36:16;8.90;99.90
20732;DHT22;10527;52.124;5.196;2023-04-07T06:38:43;8.90;99.90
20732;DHT22;10527;52.124;5.196;2023-04-07T06:41:10;8.90;99.90
20732;DHT22;10527;52.124;5.196;2023-04-07T06:43:47;8.90;99.90
20732;DHT22;10527;52.124;5.196;2023-04-07T06:46:17;8.90;99.90
20732;DHT22;10527;52.124;5.196;2023-04-07T06:48:44;8.90;99.90
20732;DHT22;10527;52.124;5.196;2023-04-07T06:51:11;9.00;99.90
20732;DHT22;10527;52.124;5.196;2023-04-07T06:53:38;9.00;99.90
20732;DHT22;10527;52.124;5.196;2023-04-07T06:56:09;9.00;99.90
20732;DHT22;10527;52.124;5.196;2023-04-07T06:58:37;9.00;99.90
20732;DHT22;10527;52.124;5.196;2023-04-07T07:01:05;9.00;99.90
20732;DHT22;10527;52.124;5.196;2023-04-07T07:03:32;9.00;99.90
20732;DHT22;10527;52.124;5.196;2023-04-07T07:06:00;9.00;99.90
20732;DHT22;10527;52.124;5.196;2023-04-07T07:08:27;9.00;99.90
20732;DHT22;10527;52.124;5.196;2023-04-07T07:10:55;9.00;99.90
20732;DHT22;10527;52.124;5.196;2023-04-07T07:13:23;9.00;99.90
20732;DHT22;10527;52.124;5.196;2023-04-07T07:15:54;9.10;99.90
20732;DHT22;10527;52.124;5.196;2023-04-07T07:18:21;9.00;99.90
20732;DHT22;10527;52.124;5.196;2023-04-07T07:20:48;9.00;99.90
20732;DHT22;10527;52.124;5.196;2023-04-07T07:23:16;9.00;99.90
20732;DHT22;10527;52.124;5.196;2023-04-07T07:25:42;9.00;99.90
20732;DHT22;10527;52.124;5.196;2023-04-07T07:28:10;9.00;99.90
20732;DHT22;10527;52.124;5.196;2023-04-07T07:30:38;9.00;99.90
20732;DHT22;10527;52.124;5.196;2023-04-07T07:33:08;9.00;99.90
20732;DHT22;10527;52.124;5.196;2023-04-07T07:35:35;9.10;99.90
20732;DHT22;10527;52.124;5.196;2023-04-07T07:38:03;9.10;99.90
20732;DHT22;10527;52.124;5.196;2023-04-07T07:40:30;9.10;99.90
20732;DHT22;10527;52.124;5.196;2023-04-07T07:42:58;9.10;99.90
20732;DHT22;10527;52.124;5.196;2023-04-07T07:45:26;9.20;99.90
20732;DHT22;10527;52.124;5.196;2023-04-07T07:47:54;9.20;99.90
20732;DHT22;10527;52.124;5.196;2023-04-07T07:50:21;9.20;99.90
20732;DHT22;10527;52.124;5.196;2023-04-07T07:52:48;9.20;99.90
20732;DHT22;10527;52.124;5.196;2023-04-07T07:55:15;9.20;99.90
20732;DHT22;10527;52.124;5.196;2023-04-07T07:57:41;9.20;99.90
20732;DHT22;10527;52.124;5.196;2023-04-07T08:00:09;9.20;99.90
20732;DHT22;10527;52.124;5.196;2023-04-07T08:02:36;9.30;99.90
20732;DHT22;10527;52.124;5.196;2023-04-07T08:05:04;9.30;99.90
20732;DHT22;10527;52.124;5.196;2023-04-07T08:07:31;9.20;99.90
20732;DHT22;10527;52.124;5.196;2023-04-07T08:09:58;9.20;99.90
20732;DHT22;10527;52.124;5.196;2023-04-07T08:12:25;9.20;99.90
20732;DHT22;10527;52.124;5.196;2023-04-07T08:14:52;9.20;99.90
20732;DHT22;10527;52.124;5.196;2023-04-07T08:17:18;9.20;99.90
20732;DHT22;10527;52.124;5.196;2023-04-07T08:19:45;9.20;99.90
20732;DHT22;10527;52.124;5.196;2023-04-07T08:22:12;9.10;99.90
20732;DHT22;10527;52.124;5.196;2023-04-07T08:24:39;9.20;99.90
20732;DHT22;10527;52.124;5.196;2023-04-07T08:27:06;9.20;99.90
20732;DHT22;10527;52.124;5.196;2023-04-07T08:29:32;9.30;99.90
20732;DHT22;10527;52.124;5.196;2023-04-07T08:31:59;9.30;99.90
20732;DHT22;10527;52.124;5.196;2023-04-07T08:34:26;9.20;99.90
20732;DHT22;10527;52.124;5.196;2023-04-07T08:36:53;9.20;99.90
20732;DHT22;10527;52.124;5.196;2023-04-07T08:39:20;9.30;99.90
20732;DHT22;10527;52.124;5.196;2023-04-07T08:41:49;9.30;99.90
20732;DHT22;10527;52.124;5.196;2023-04-07T08:44:21;9.30;99.90
20732;DHT22;10527;52.124;5.196;2023-04-07T08:46:49;9.20;99.90
20732;DHT22;10527;52.124;5.196;2023-04-07T08:49:22;9.20;99.90
20732;DHT22;10527;52.124;5.196;2023-04-07T08:51:54;9.30;99.90
20732;DHT22;10527;52.124;5.196;2023-04-07T08:54:24;9.40;99.90
20732;DHT22;10527;52.124;5.196;2023-04-07T08:56:50;9.40;99.90
20732;DHT22;10527;52.124;5.196;2023-04-07T08:59:18;9.50;99.90
20732;DHT22;10527;52.124;5.196;2023-04-07T09:01:48;9.50;99.90
20732;DHT22;10527;52.124;5.196;2023-04-07T09:04:16;9.50;99.90
20732;DHT22;10527;52.124;5.196;2023-04-07T09:06:43;9.50;99.90
20732;DHT22;10527;52.124;5.196;2023-04-07T09:09:10;9.50;99.90
20732;DHT22;10527;52.124;5.196;2023-04-07T09:11:39;9.70;99.90
20732;DHT22;10527;52.124;5.196;2023-04-07T09:14:06;9.60;99.90
20732;DHT22;10527;52.124;5.196;2023-04-07T09:16:34;9.50;99.90
20732;DHT22;10527;52.124;5.196;2023-04-07T09:19:01;9.60;99.90
20732;DHT22;10527;52.124;5.196;2023-04-07T09:21:48;9.60;99.90
20732;DHT22;10527;52.124;5.196;2023-04-07T09:24:22;9.90;99.90
20732;DHT22;10527;52.124;5.196;2023-04-07T09:29:33;10.10;99.90
20732;DHT22;10527;52.124;5.196;2023-04-07T09:32:00;10.00;99.90
20732;DHT22;10527;52.124;5.196;2023-04-07T09:34:29;10.00;99.90
20732;DHT22;10527;52.124;5.196;2023-04-07T09:37:02;10.00;99.90
20732;DHT22;10527;52.124;5.196;2023-04-07T09:39:30;10.00;99.90
20732;DHT22;10527;52.124;5.196;2023-04-07T09:42:05;9.90;99.90
20732;DHT22;10527;52.124;5.196;2023-04-07T09:44:38;9.90;99.90
20732;DHT22;10527;52.124;5.196;2023-04-07T09:47:07;9.90;99.90
20732;DHT22;10527;52.124;5.196;2023-04-07T09:49:48;9.90;99.90
20732;DHT22;10527;52.124;5.196;2023-04-07T09:52:18;9.80;99.90
20732;DHT22;10527;52.124;5.196;2023-04-07T09:54:48;9.90;99.90
20732;DHT22;10527;52.124;5.196;2023-04-07T09:57:18;9.80;99.90
20732;DHT22;10527;52.124;5.196;2023-04-07T09:59:47;9.70;99.90
20732;DHT22;10527;52.124;5.196;2023-04-07T10:02:16;9.80;99.90
20732;DHT22;10527;52.124;5.196;2023-04-07T10:04:43;9.90;99.90
20732;DHT22;10527;52.124;5.196;2023-04-07T10:07:10;9.90;99.90
20732;DHT22;10527;52.124;5.196;2023-04-07T10:09:38;10.00;99.90
20732;DHT22;10527;52.124;5.196;2023-04-07T10:12:05;10.00;99.90
20732;DHT22;10527;52.124;5.196;2023-04-07T10:14:34;10.10;99.90
20732;DHT22;10527;52.124;5.196;2023-04-07T10:17:03;10.00;99.90
20732;DHT22;10527;52.124;5.196;2023-04-07T10:19:31;10.10;99.90
20732;DHT22;10527;52.124;5.196;2023-04-07T10:22:02;10.00;99.90
20732;DHT22;10527;52.124;5.196;2023-04-07T10:27:34;9.90;99.90
20732;DHT22;10527;52.124;5.196;2023-04-07T10:30:12;10.00;99.90
20732;DHT22;10527;52.124;5.196;2023-04-07T10:32:48;10.00;99.90
20732;DHT22;10527;52.124;5.196;2023-04-07T10:35:17;10.00;99.90
20732;DHT22;10527;52.124;5.196;2023-04-07T10:40:36;9.90;99.90
20732;DHT22;10527;52.124;5.196;2023-04-07T10:43:04;10.00;99.90
20732;DHT22;10527;52.124;5.196;2023-04-07T10:48:18;10.00;99.90
20732;DHT22;10527;52.124;5.196;2023-04-07T10:53:34;10.00;99.90
20732;DHT22;10527;52.124;5.196;2023-04-07T10:56:01;10.20;99.90
20732;DHT22;10527;52.124;5.196;2023-04-07T10:58:31;10.20;99.90
20732;DHT22;10527;52.124;5.196;2023-04-07T11:03:39;10.20;99.90
20732;DHT22;10527;52.124;5.196;2023-04-07T11:06:13;10.20;99.90
20732;DHT22;10527;52.124;5.196;2023-04-07T11:08:42;10.10;99.90
20732;DHT22;10527;52.124;5.196;2023-04-07T11:11:34;10.20;99.90
20732;DHT22;10527;52.124;5.196;2023-04-07T11:14:03;10.30;99.90
20732;DHT22;10527;52.124;5.196;2023-04-07T11:16:37;10.30;99.90
20732;DHT22;10527;52.124;5.196;2023-04-07T11:19:05;10.40;99.90
20732;DHT22;10527;52.124;5.196;2023-04-07T11:21:32;10.30;99.90
20732;DHT22;10527;52.124;5.196;2023-04-07T11:23:59;10.30;99.90
20732;DHT22;10527;52.124;5.196;2023-04-07T11:26:26;10.30;99.90
20732;DHT22;10527;52.124;5.196;2023-04-07T11:28:55;10.40;99.90
20732;DHT22;10527;52.124;5.196;2023-04-07T11:31:25;10.50;99.90
20732;DHT22;10527;52.124;5.196;2023-04-07T11:34:03;10.40;99.90
20732;DHT22;10527;52.124;5.196;2023-04-07T11:36:37;10.50;99.90
20732;DHT22;10527;52.124;5.196;2023-04-07T11:39:05;10.50;99.90
20732;DHT22;10527;52.124;5.196;2023-04-07T11:41:47;10.40;99.90
20732;DHT22;10527;52.124;5.196;2023-04-07T11:44:15;10.60;99.90
20732;DHT22;10527;52.124;5.196;2023-04-07T11:46:57;10.50;99.90
20732;DHT22;10527;52.124;5.196;2023-04-07T11:49:26;10.60;99.90
20732;DHT22;10527;52.124;5.196;2023-04-07T11:52:02;10.70;99.90
20732;DHT22;10527;52.124;5.196;2023-04-07T11:54:44;10.60;99.90
20732;DHT22;10527;52.124;5.196;2023-04-07T11:57:13;10.60;99.90
20732;DHT22;10527;52.124;5.196;2023-04-07T11:59:49;10.70;99.90
20732;DHT22;10527;52.124;5.196;2023-04-07T12:02:34;10.70;99.90
20732;DHT22;10527;52.124;5.196;2023-04-07T12:05:03;10.80;99.90
20732;DHT22;10527;52.124;5.196;2023-04-07T12:07:32;10.60;99.90
20732;DHT22;10527;52.124;5.196;2023-04-07T12:10:17;10.80;99.90
20732;DHT22;10527;52.124;5.196;2023-04-07T12:12:46;10.70;99.90
20732;DHT22;10527;52.124;5.196;2023-04-07T12:15:13;10.60;99.90
20732;DHT22;10527;52.124;5.196;2023-04-07T12:17:45;10.60;99.90
20732;DHT22;10527;52.124;5.196;2023-04-07T12:20:14;10.60;99.90
20732;DHT22;10527;52.124;5.196;2023-04-07T12:22:41;10.80;99.90
20732;DHT22;10527;52.124;5.196;2023-04-07T12:25:08;10.80;99.90
20732;DHT22;10527;52.124;5.196;2023-04-07T12:27:35;10.80;99.90
20732;DHT22;10527;52.124;5.196;2023-04-07T12:30:18;10.80;99.90
20732;DHT22;10527;52.124;5.196;2023-04-07T12:32:45;10.90;99.90
20732;DHT22;10527;52.124;5.196;2023-04-07T12:35:12;10.80;99.90
20732;DHT22;10527;52.124;5.196;2023-04-07T12:37:39;10.70;99.90
20732;DHT22;10527;52.124;5.196;2023-04-07T12:40:07;10.80;99.90
20732;DHT22;10527;52.124;5.196;2023-04-07T12:42:34;10.70;99.90
20732;DHT22;10527;52.124;5.196;2023-04-07T12:45:01;10.70;99.90
20732;DHT22;10527;52.124;5.196;2023-04-07T12:47:28;10.60;99.90
20732;DHT22;10527;52.124;5.196;2023-04-07T12:49:56;10.60;99.90
20732;DHT22;10527;52.124;5.196;2023-04-07T12:52:23;10.70;99.90
20732;DHT22;10527;52.124;5.196;2023-04-07T12:54:50;10.70;99.90
20732;DHT22;10527;52.124;5.196;2023-04-07T12:57:18;10.70;99.90
20732;DHT22;10527;52.124;5.196;2023-04-07T12:59:45;10.60;99.90
20732;DHT22;10527;52.124;5.196;2023-04-07T13:02:12;10.50;99.90
20732;DHT22;10527;52.124;5.196;2023-04-07T13:04:39;10.50;99.90
20732;DHT22;10527;52.124;5.196;2023-04-07T13:07:09;10.50;99.90
20732;DHT22;10527;52.124;5.196;2023-04-07T13:09:36;10.50;99.90
20732;DHT22;10527;52.124;5.196;2023-04-07T13:12:04;10.60;99.90
20732;DHT22;10527;52.124;5.196;2023-04-07T13:14:31;10.50;99.90
20732;DHT22;10527;52.124;5.196;2023-04-07T13:16:59;10.60;99.90
20732;DHT22;10527;52.124;5.196;2023-04-07T13:19:26;10.70;99.90
20732;DHT22;10527;52.124;5.196;2023-04-07T13:21:52;10.80;99.90
20732;DHT22;10527;52.124;5.196;2023-04-07T13:24:19;10.80;99.90
20732;DHT22;10527;52.124;5.196;2023-04-07T13:26:47;10.90;99.90
20732;DHT22;10527;52.124;5.196;2023-04-07T13:29:15;10.80;99.90
20732;DHT22;10527;52.124;5.196;2023-04-07T13:31:45;10.90;99.90
20732;DHT22;10527;52.124;5.196;2023-04-07T13:34:14;10.80;99.90
20732;DHT22;10527;52.124;5.196;2023-04-07T13:36:42;10.80;99.90
20732;DHT22;10527;52.124;5.196;2023-04-07T13:39:09;10.80;99.90
20732;DHT22;10527;52.124;5.196;2023-04-07T13:41:36;10.70;99.90
20732;DHT22;10527;52.124;5.196;2023-04-07T13:44:03;10.70;99.90
20732;DHT22;10527;52.124;5.196;2023-04-07T13:46:29;10.90;99.90
20732;DHT22;10527;52.124;5.196;2023-04-07T13:48:56;10.90;99.90
20732;DHT22;10527;52.124;5.196;2023-04-07T13:51:24;10.70;99.90
20732;DHT22;10527;52.124;5.196;2023-04-07T13:53:51;10.80;99.90
20732;DHT22;10527;52.124;5.196;2023-04-07T13:56:19;10.70;99.90
20732;DHT22;10527;52.124;5.196;2023-04-07T13:58:47;10.70;99.90
20732;DHT22;10527;52.124;5.196;2023-04-07T14:01:14;10.70;99.90
20732;DHT22;10527;52.124;5.196;2023-04-07T14:03:41;10.60;99.90
20732;DHT22;10527;52.124;5.196;2023-04-07T14:06:08;10.70;99.90
20732;DHT22;10527;52.124;5.196;2023-04-07T14:08:35;10.70;99.90
20732;DHT22;10527;52.124;5.196;2023-04-07T14:11:02;10.70;99.90
20732;DHT22;10527;52.124;5.196;2023-04-07T14:13:29;10.60;99.90
20732;DHT22;10527;52.124;5.196;2023-04-07T14:15:56;10.60;99.90
20732;DHT22;10527;52.124;5.196;2023-04-07T14:18:22;10.50;99.90
20732;DHT22;10527;52.124;5.196;2023-04-07T14:20:50;10.60;99.90
20732;DHT22;10527;52.124;5.196;2023-04-07T14:23:16;10.60;99.90
20732;DHT22;10527;52.124;5.196;2023-04-07T14:26:02;10.50;99.90
20732;DHT22;10527;52.124;5.196;2023-04-07T14:28:29;10.40;99.90
20732;DHT22;10527;52.124;5.196;2023-04-07T14:30:55;10.40;99.90
20732;DHT22;10527;52.124;5.196;2023-04-07T14:33:24;10.40;99.90
20732;DHT22;10527;52.124;5.196;2023-04-07T14:35:51;10.30;99.90
20732;DHT22;10527;52.124;5.196;2023-04-07T14:38:18;10.30;99.90
20732;DHT22;10527;52.124;5.196;2023-04-07T14:40:49;10.40;99.90
20732;DHT22;10527;52.124;5.196;2023-04-07T14:43:20;10.40;99.90
20732;DHT22;10527;52.124;5.196;2023-04-07T14:45:46;10.30;99.90
20732;DHT22;10527;52.124;5.196;2023-04-07T14:48:13;10.40;99.90
20732;DHT22;10527;52.124;5.196;2023-04-07T14:50:40;10.30;99.90
20732;DHT22;10527;52.124;5.196;2023-04-07T14:53:07;10.40;99.90
20732;DHT22;10527;52.124;5.196;2023-04-07T14:55:34;10.40;99.90
20732;DHT22;10527;52.124;5.196;2023-04-07T14:58:02;10.40;99.90
20732;DHT22;10527;52.124;5.196;2023-04-07T15:00:29;10.40;99.90
20732;DHT22;10527;52.124;5.196;2023-04-07T15:02:56;10.40;99.90
20732;DHT22;10527;52.124;5.196;2023-04-07T15:05:23;10.30;99.90
20732;DHT22;10527;52.124;5.196;2023-04-07T15:07:53;10.30;99.90
20732;DHT22;10527;52.124;5.196;2023-04-07T15:10:20;10.20;99.90
20732;DHT22;10527;52.124;5.196;2023-04-07T15:12:47;10.30;99.90
20732;DHT22;10527;52.124;5.196;2023-04-07T15:15:16;10.30;99.90
20732;DHT22;10527;52.124;5.196;2023-04-07T15:17:43;10.20;99.90
20732;DHT22;10527;52.124;5.196;2023-04-07T15:20:11;10.20;99.90
20732;DHT22;10527;52.124;5.196;2023-04-07T15:22:38;10.00;99.90
20732;DHT22;10527;52.124;5.196;2023-04-07T15:25:06;10.10;99.90
20732;DHT22;10527;52.124;5.196;2023-04-07T15:27:33;10.10;99.90
20732;DHT22;10527;52.124;5.196;2023-04-07T15:30:00;10.00;99.90
20732;DHT22;10527;52.124;5.196;2023-04-07T15:32:29;10.00;99.90
20732;DHT22;10527;52.124;5.196;2023-04-07T15:34:57;10.00;99.90
20732;DHT22;10527;52.124;5.196;2023-04-07T15:37:25;10.00;99.90
20732;DHT22;10527;52.124;5.196;2023-04-07T15:39:52;10.00;99.90
20732;DHT22;10527;52.124;5.196;2023-04-07T15:42:19;9.90;99.90
20732;DHT22;10527;52.124;5.196;2023-04-07T15:44:45;9.90;99.90
20732;DHT22;10527;52.124;5.196;2023-04-07T15:47:12;9.90;99.90
20732;DHT22;10527;52.124;5.196;2023-04-07T15:49:39;10.00;99.90
20732;DHT22;10527;52.124;5.196;2023-04-07T15:52:07;9.90;99.90
20732;DHT22;10527;52.124;5.196;2023-04-07T15:54:34;10.00;99.90
20732;DHT22;10527;52.124;5.196;2023-04-07T15:57:01;10.00;99.90
20732;DHT22;10527;52.124;5.196;2023-04-07T15:59:29;10.00;99.90
20732;DHT22;10527;52.124;5.196;2023-04-07T16:01:57;10.00;99.90
20732;DHT22;10527;52.124;5.196;2023-04-07T16:04:24;10.00;99.90
20732;DHT22;10527;52.124;5.196;2023-04-07T16:06:51;9.90;99.90
20732;DHT22;10527;52.124;5.196;2023-04-07T16:09:17;9.90;99.90
20732;DHT22;10527;52.124;5.196;2023-04-07T16:11:44;10.00;99.90